Time;durP1;ratioP1;P1;durP2;ratioP2;P2;SDS_P1;SDS_P2;PMS_P1;PMS_P2;Temp;Humidity;BMP_temperature;BMP_pressure;BME280_temperature;BME280_humidity;BME280_pressure;Samples;Min_cycle;Max_cycle;Signal;HPM_P1;HPM_P2
2022/05/08 00:00:25;;;;;;;36.58;26.67;;;12.90;87.50;;;;;;5017102;28;20480;-85
2022/05/08 00:02:54;;;;;;;39.05;26.70;;;12.90;87.40;;;;;;5019810;28;20111;-85
2022/05/08 00:05:20;;;;;;;36.17;24.92;;;12.80;87.50;;;;;;5022195;28;20222;-85
2022/05/08 00:07:45;;;;;;;41.83;26.33;;;12.80;87.60;;;;;;5027433;28;20570;-85
2022/05/08 00:10:11;;;;;;;35.90;25.88;;;12.70;87.60;;;;;;5034868;28;20045;-85
2022/05/08 00:12:37;;;;;;;37.15;25.23;;;12.70;87.60;;;;;;5038160;28;20064;-84
2022/05/08 00:15:03;;;;;;;32.25;24.80;;;12.70;87.60;;;;;;5017009;28;20046;-85
2022/05/08 00:17:34;;;;;;;33.83;25.88;;;12.70;87.60;;;;;;5022165;28;20041;-86
2022/05/08 00:20:01;;;;;;;39.20;26.27;;;12.70;87.50;;;;;;5021130;28;20033;-85
2022/05/08 00:22:27;;;;;;;37.47;26.60;;;12.60;87.60;;;;;;5021581;28;20576;-85
2022/05/08 00:24:52;;;;;;;35.53;25.15;;;12.60;87.70;;;;;;5023098;28;20067;-86
2022/05/08 00:27:19;;;;;;;39.47;26.35;;;12.60;87.80;;;;;;5031123;28;20045;-87
2022/05/08 00:29:45;;;;;;;34.45;25.55;;;12.60;87.90;;;;;;5026714;28;20063;-85
2022/05/08 00:32:11;;;;;;;33.00;25.08;;;12.60;87.80;;;;;;5010772;28;20396;-85
2022/05/08 00:34:37;;;;;;;34.10;24.73;;;12.60;87.70;;;;;;5022216;28;20033;-85
2022/05/08 00:37:03;;;;;;;42.30;26.88;;;12.60;87.90;;;;;;5022461;28;20033;-86
2022/05/08 00:39:29;;;;;;;34.17;24.58;;;12.60;87.90;;;;;;5022423;28;20030;-87
2022/05/08 00:41:54;;;;;;;36.15;24.80;;;12.60;88.00;;;;;;5016113;28;20516;-86
2022/05/08 00:44:20;;;;;;;36.10;23.77;;;12.60;87.90;;;;;;5020133;28;20692;-85
2022/05/08 00:46:48;;;;;;;37.30;24.23;;;12.50;87.80;;;;;;5022891;28;20048;-85
2022/05/08 00:49:14;;;;;;;31.10;22.52;;;12.60;87.90;;;;;;5023574;28;20045;-84
2022/05/08 00:51:40;;;;;;;29.40;22.55;;;12.50;87.70;;;;;;5026683;28;20030;-85
2022/05/08 00:54:06;;;;;;;29.20;21.40;;;12.50;87.80;;;;;;5024417;28;20064;-86
2022/05/08 00:56:32;;;;;;;32.67;23.08;;;12.50;87.80;;;;;;5029451;28;20098;-84
2022/05/08 00:58:59;;;;;;;31.77;23.25;;;12.40;87.90;;;;;;5015895;28;20705;-87
2022/05/08 01:01:26;;;;;;;34.97;23.00;;;12.40;87.90;;;;;;5027447;28;21744;-86
2022/05/08 01:03:53;;;;;;;32.40;22.85;;;12.30;88.00;;;;;;5030607;28;20924;-86
2022/05/08 01:06:19;;;;;;;32.72;23.52;;;12.30;88.00;;;;;;5040633;28;20050;-88
2022/05/08 01:08:47;;;;;;;29.67;23.17;;;12.20;88.10;;;;;;5040155;28;20033;-85
2022/05/08 01:11:14;;;;;;;30.73;22.58;;;12.20;88.30;;;;;;5037698;28;20117;-86
2022/05/08 01:13:41;;;;;;;37.08;23.17;;;12.20;88.40;;;;;;5026863;28;20138;-86
2022/05/08 01:16:09;;;;;;;32.80;22.90;;;12.20;88.40;;;;;;5027443;28;20550;-86
2022/05/08 01:18:34;;;;;;;34.65;22.85;;;12.10;88.60;;;;;;5026658;28;20088;-86
2022/05/08 01:21:00;;;;;;;34.05;23.40;;;12.10;88.60;;;;;;5037039;28;20045;-86
2022/05/08 01:23:26;;;;;;;31.60;22.95;;;12.10;88.80;;;;;;5029862;28;20041;-86
2022/05/08 01:25:53;;;;;;;30.83;22.17;;;12.10;88.80;;;;;;5026898;28;20071;-87
2022/05/08 01:28:21;;;;;;;28.73;22.13;;;12.10;88.80;;;;;;5025198;28;20500;-85
2022/05/08 01:30:48;;;;;;;29.95;21.63;;;12.10;88.80;;;;;;5028641;28;20113;-85
2022/05/08 01:33:15;;;;;;;29.88;20.30;;;12.10;88.90;;;;;;5030752;28;20064;-86
2022/05/08 01:35:42;;;;;;;29.90;21.15;;;12.10;88.70;;;;;;5031202;28;20052;-86
2022/05/08 01:38:09;;;;;;;28.90;21.80;;;12.10;88.60;;;;;;5033940;28;20082;-85
2022/05/08 01:40:35;;;;;;;30.55;21.60;;;12.00;88.70;;;;;;5026913;28;20034;-85
2022/05/08 01:43:01;;;;;;;25.65;18.77;;;12.00;88.60;;;;;;5024636;28;20033;-85
2022/05/08 01:45:27;;;;;;;26.13;18.08;;;12.00;88.60;;;;;;5022873;28;20040;-85
2022/05/08 01:50:38;;;;;;;25.92;17.80;;;12.10;88.30;;;;;;5041501;28;20044;-85
2022/05/08 01:53:04;;;;;;;25.38;17.70;;;12.00;88.00;;;;;;5033031;28;20388;-86
2022/05/08 01:55:30;;;;;;;22.77;16.08;;;12.00;87.80;;;;;;5026213;28;20053;-86
2022/05/08 01:57:56;;;;;;;26.10;16.77;;;12.00;87.70;;;;;;5027296;28;20103;-86
2022/05/08 02:00:22;;;;;;;20.02;15.60;;;12.00;87.70;;;;;;5028422;28;20044;-85
2022/05/08 02:02:49;;;;;;;23.83;15.82;;;12.00;87.50;;;;;;5027981;28;20710;-85
2022/05/08 02:05:22;;;;;;;24.42;16.02;;;11.90;87.30;;;;;;5024525;28;20449;-85
2022/05/08 02:07:49;;;;;;;20.20;15.50;;;11.90;87.40;;;;;;5026031;28;20488;-85
2022/05/08 02:10:16;;;;;;;20.50;13.60;;;11.90;87.10;;;;;;5024970;28;20056;-85
2022/05/08 02:12:43;;;;;;;18.20;14.18;;;11.90;86.90;;;;;;5022695;28;20030;-86
2022/05/08 02:15:10;;;;;;;21.23;14.27;;;11.90;86.80;;;;;;5024180;28;20163;-84
2022/05/08 02:17:37;;;;;;;19.50;14.50;;;11.90;86.70;;;;;;5031245;28;20144;-85
2022/05/08 02:20:06;;;;;;;19.90;14.27;;;11.90;86.60;;;;;;5024829;28;20396;-87
2022/05/08 02:22:36;;;;;;;20.35;14.45;;;11.90;86.50;;;;;;5029872;28;20040;-86
2022/05/08 02:25:06;;;;;;;21.30;14.60;;;11.90;86.30;;;;;;5018503;28;20464;-88
2022/05/08 02:27:39;;;;;;;17.33;13.63;;;11.90;86.30;;;;;;5023295;28;20128;-84
2022/05/08 02:30:10;;;;;;;22.33;14.48;;;11.80;86.30;;;;;;5026655;28;20037;-87
2022/05/08 02:32:37;;;;;;;23.45;15.10;;;11.80;86.30;;;;;;5020790;28;20044;-86
2022/05/08 02:35:05;;;;;;;19.38;13.73;;;11.80;86.40;;;;;;5020257;28;20154;-85
2022/05/08 02:37:31;;;;;;;20.85;14.50;;;11.70;86.70;;;;;;5018334;28;20128;-85
2022/05/08 02:39:57;;;;;;;22.77;15.52;;;11.70;86.80;;;;;;5021105;28;20346;-86
2022/05/08 02:42:23;;;;;;;21.40;14.88;;;11.70;86.90;;;;;;5013567;28;20816;-87
2022/05/08 02:44:49;;;;;;;19.98;14.63;;;11.60;86.90;;;;;;5017095;28;20041;-87
2022/05/08 02:47:14;;;;;;;19.70;14.57;;;11.60;86.80;;;;;;5012380;28;20061;-86
2022/05/08 02:49:40;;;;;;;19.83;14.55;;;11.60;86.80;;;;;;5011729;28;20112;-85
2022/05/08 02:52:06;;;;;;;18.77;14.13;;;11.60;86.80;;;;;;5018700;28;20484;-86
2022/05/08 02:54:32;;;;;;;22.63;14.25;;;11.60;86.80;;;;;;5015638;28;20140;-86
2022/05/08 02:59:41;;;;;;;20.63;14.43;;;11.60;86.60;;;;;;5020506;28;20052;-86
2022/05/08 03:02:08;;;;;;;23.05;14.48;;;11.50;86.70;;;;;;5018174;28;20041;-86
2022/05/08 03:04:34;;;;;;;25.02;15.52;;;11.50;86.60;;;;;;5016020;28;20068;-85
2022/05/08 03:07:02;;;;;;;22.27;15.50;;;11.50;86.70;;;;;;5014724;28;20393;-86
2022/05/08 03:09:28;;;;;;;21.45;14.43;;;11.50;86.70;;;;;;5031197;28;20067;-85
2022/05/08 03:11:54;;;;;;;23.73;14.43;;;11.40;86.60;;;;;;5033771;28;20056;-84
2022/05/08 03:14:24;;;;;;;23.30;15.20;;;11.40;86.70;;;;;;5032877;28;20144;-83
2022/05/08 03:16:49;;;;;;;19.55;14.77;;;11.30;86.70;;;;;;5015934;28;20040;-84
2022/05/08 03:19:18;;;;;;;21.90;15.20;;;11.30;86.70;;;;;;5026518;28;20573;-85
2022/05/08 03:21:48;;;;;;;21.98;14.50;;;11.20;86.80;;;;;;5023800;28;20086;-85
2022/05/08 03:24:14;;;;;;;20.95;14.55;;;11.20;86.80;;;;;;5021600;28;20029;-85
2022/05/08 03:26:40;;;;;;;22.70;13.23;;;11.20;86.80;;;;;;5031509;28;20041;-85
2022/05/08 03:29:07;;;;;;;21.27;13.90;;;11.10;86.80;;;;;;5019785;28;20080;-85
2022/05/08 03:31:33;;;;;;;20.55;13.13;;;11.10;86.60;;;;;;5022036;28;20087;-86
2022/05/08 03:33:59;;;;;;;19.98;13.50;;;11.10;86.60;;;;;;5023976;28;20046;-86
2022/05/08 03:36:25;;;;;;;19.23;13.27;;;11.10;86.50;;;;;;5019355;28;20419;-84
2022/05/08 03:38:52;;;;;;;19.40;13.45;;;11.10;86.70;;;;;;5020739;28;20045;-83
2022/05/08 03:41:18;;;;;;;18.92;13.60;;;11.10;86.70;;;;;;5028064;28;20903;-85
2022/05/08 03:43:44;;;;;;;25.17;15.05;;;11.10;86.60;;;;;;5012336;28;20052;-85
2022/05/08 03:46:10;;;;;;;20.00;13.40;;;11.10;86.40;;;;;;5014016;28;20040;-85
2022/05/08 03:48:36;;;;;;;19.70;13.70;;;11.10;86.30;;;;;;5040787;28;20066;-85
2022/05/08 03:51:03;;;;;;;20.83;13.85;;;11.10;86.40;;;;;;5019952;28;20053;-85
2022/05/08 03:53:29;;;;;;;21.15;13.85;;;11.00;86.40;;;;;;5027655;28;20030;-85
2022/05/08 03:55:54;;;;;;;20.75;13.68;;;11.10;86.50;;;;;;5027059;28;20060;-85
2022/05/08 03:58:20;;;;;;;21.65;13.75;;;11.10;86.40;;;;;;5018749;28;20029;-84
2022/05/08 04:00:46;;;;;;;21.65;14.30;;;11.10;86.40;;;;;;5022904;28;20087;-85
2022/05/08 04:03:11;;;;;;;21.00;14.30;;;11.10;86.40;;;;;;5015739;28;20034;-87
2022/05/08 04:05:37;;;;;;;19.27;13.60;;;11.00;86.60;;;;;;5025106;28;20060;-86
2022/05/08 04:08:03;;;;;;;21.50;13.65;;;11.10;86.60;;;;;;5019245;28;20497;-85
2022/05/08 04:10:29;;;;;;;19.58;13.77;;;11.10;86.50;;;;;;5038295;28;20047;-85
2022/05/08 04:12:54;;;;;;;22.08;14.60;;;11.10;86.50;;;;;;5035106;28;20040;-85
2022/05/08 04:18:04;;;;;;;23.52;14.32;;;11.20;86.50;;;;;;5026685;28;20083;-84
2022/05/08 04:20:30;;;;;;;18.75;13.80;;;11.20;86.50;;;;;;5015408;28;20041;-84
2022/05/08 04:25:41;;;;;;;19.95;13.98;;;11.30;86.50;;;;;;5032727;28;20052;-85
2022/05/08 04:28:07;;;;;;;19.77;14.80;;;11.30;86.60;;;;;;5035263;28;20071;-87
2022/05/08 04:30:34;;;;;;;21.13;13.98;;;11.30;86.50;;;;;;5042898;28;20041;-86
2022/05/08 04:33:00;;;;;;;19.90;14.77;;;11.40;86.50;;;;;;5049351;28;20057;-86
2022/05/08 04:35:26;;;;;;;21.00;15.23;;;11.40;86.60;;;;;;5030421;28;20041;-87
2022/05/08 04:37:52;;;;;;;21.75;14.93;;;11.50;86.60;;;;;;5028408;28;20041;-86
2022/05/08 04:40:19;;;;;;;21.73;15.32;;;11.50;86.60;;;;;;5029259;28;20053;-86
2022/05/08 04:42:45;;;;;;;24.25;15.55;;;11.50;86.60;;;;;;5041275;28;20605;-86
2022/05/08 04:45:10;;;;;;;24.38;16.38;;;11.40;86.80;;;;;;5029270;28;20476;-84
2022/05/08 04:47:36;;;;;;;21.85;15.70;;;11.50;86.90;;;;;;5026978;28;20092;-84
2022/05/08 04:50:02;;;;;;;21.70;16.98;;;11.50;87.00;;;;;;5012850;28;20103;-82
2022/05/08 04:52:28;;;;;;;25.77;16.02;;;11.50;87.00;;;;;;5030009;28;21155;-87
2022/05/08 04:54:54;;;;;;;25.52;16.95;;;11.50;87.20;;;;;;5031327;28;20042;-85
2022/05/08 04:57:19;;;;;;;25.83;16.35;;;11.50;87.40;;;;;;5018508;28;20053;-84
2022/05/08 04:59:45;;;;;;;23.30;16.30;;;11.50;87.20;;;;;;5023466;28;20504;-86
2022/05/08 05:02:12;;;;;;;25.10;17.15;;;11.60;87.20;;;;;;5054864;28;20041;-85
2022/05/08 05:04:38;;;;;;;25.08;17.30;;;11.60;87.30;;;;;;5042845;28;20041;-86
2022/05/08 05:07:03;;;;;;;28.73;19.27;;;11.60;87.50;;;;;;5025685;28;20052;-84
2022/05/08 05:09:29;;;;;;;22.38;17.25;;;11.70;87.30;;;;;;5027628;28;20042;-86
2022/05/08 05:11:55;;;;;;;30.80;18.08;;;11.70;87.20;;;;;;5026278;28;20044;-83
2022/05/08 05:14:20;;;;;;;25.08;18.90;;;11.80;87.20;;;;;;5035411;28;20458;-84
2022/05/08 05:16:46;;;;;;;27.55;18.52;;;11.80;87.10;;;;;;5030026;28;20044;-88
2022/05/08 05:19:12;;;;;;;26.63;18.27;;;11.90;87.10;;;;;;5023525;28;20041;-84
2022/05/08 05:21:38;;;;;;;27.45;18.85;;;12.00;87.00;;;;;;5032459;28;20033;-84
2022/05/08 05:24:04;;;;;;;28.98;18.90;;;12.10;86.80;;;;;;5043025;28;20479;-84
2022/05/08 05:26:31;;;;;;;24.92;17.60;;;12.10;86.20;;;;;;5039985;28;20060;-86
2022/05/08 05:28:56;;;;;;;25.48;18.67;;;12.10;86.50;;;;;;5023269;28;20445;-84
2022/05/08 05:31:22;;;;;;;28.80;17.60;;;12.10;86.20;;;;;;5028977;28;20116;-85
2022/05/08 05:33:48;;;;;;;24.52;18.65;;;12.20;86.40;;;;;;5024715;28;20033;-84
2022/05/08 05:36:14;;;;;;;26.17;18.88;;;12.10;86.40;;;;;;5024150;28;20124;-85
2022/05/08 05:38:41;;;;;;;30.90;19.20;;;12.10;86.40;;;;;;5025820;28;20405;-85
2022/05/08 05:41:07;;;;;;;27.10;18.83;;;12.10;86.20;;;;;;5023830;28;20038;-85
2022/05/08 05:43:34;;;;;;;28.58;19.17;;;12.10;86.40;;;;;;5028444;28;20041;-84
2022/05/08 05:48:44;;;;;;;23.88;17.73;;;12.10;86.00;;;;;;5018122;28;20095;-85
2022/05/08 05:51:10;;;;;;;27.40;18.77;;;12.10;86.00;;;;;;5020557;28;20115;-85
2022/05/08 05:53:37;;;;;;;26.98;19.15;;;12.10;85.90;;;;;;5021586;28;20700;-85
2022/05/08 05:56:03;;;;;;;29.08;19.73;;;12.20;86.20;;;;;;5029574;28;20912;-85
2022/05/08 05:58:29;;;;;;;25.58;19.55;;;12.20;85.90;;;;;;5017435;28;20029;-83
2022/05/08 06:00:56;;;;;;;28.05;18.50;;;12.20;85.80;;;;;;5024350;28;20100;-85
2022/05/08 06:03:22;;;;;;;30.15;20.73;;;12.40;85.80;;;;;;5027588;28;20039;-83
2022/05/08 06:05:47;;;;;;;30.17;19.92;;;12.40;85.20;;;;;;5033266;28;20551;-82
2022/05/08 06:08:13;;;;;;;31.40;20.45;;;12.40;84.90;;;;;;5022933;28;20116;-89
2022/05/08 06:10:38;;;;;;;29.73;19.95;;;12.40;85.20;;;;;;5022240;28;20062;-85
2022/05/08 06:13:04;;;;;;;28.70;17.88;;;12.60;84.70;;;;;;5022818;28;20040;-85
2022/05/08 06:15:30;;;;;;;27.45;18.23;;;12.60;84.20;;;;;;5052431;28;20038;-84
2022/05/08 06:17:56;;;;;;;33.83;19.85;;;12.60;84.20;;;;;;5029843;28;20052;-85
2022/05/08 06:20:21;;;;;;;28.35;18.80;;;12.70;84.10;;;;;;5025394;28;20041;-85
2022/05/08 06:22:47;;;;;;;26.17;18.25;;;12.80;83.70;;;;;;5028216;28;20111;-84
2022/05/08 06:25:12;;;;;;;27.25;18.10;;;13.00;83.00;;;;;;5021494;28;20037;-84
2022/05/08 06:27:39;;;;;;;28.70;18.20;;;13.10;82.50;;;;;;5019342;28;20060;-83
2022/05/08 06:30:06;;;;;;;30.88;18.50;;;13.30;81.80;;;;;;5017839;28;20034;-85
2022/05/08 06:32:34;;;;;;;28.15;17.27;;;13.40;81.90;;;;;;5016979;28;20044;-84
2022/05/08 06:34:59;;;;;;;26.40;17.45;;;13.50;81.00;;;;;;5014397;28;20069;-85
2022/05/08 06:37:25;;;;;;;27.38;17.35;;;13.50;80.70;;;;;;5020708;28;20071;-85
2022/05/08 06:39:52;;;;;;;25.45;17.50;;;13.50;79.80;;;;;;5022671;28;20225;-81
2022/05/08 06:42:18;;;;;;;24.63;17.77;;;13.50;80.00;;;;;;5012634;28;20120;-80
2022/05/08 06:44:45;;;;;;;24.48;18.20;;;13.60;79.70;;;;;;5022730;28;20071;-80
2022/05/08 06:47:10;;;;;;;23.55;16.30;;;13.80;78.60;;;;;;5011677;28;20924;-80
2022/05/08 06:49:39;;;;;;;26.67;16.23;;;14.10;77.30;;;;;;5004321;28;20046;-80
2022/05/08 06:52:04;;;;;;;22.27;15.45;;;14.00;74.80;;;;;;5004629;28;20041;-80
2022/05/08 06:54:30;;;;;;;23.42;14.35;;;14.00;74.50;;;;;;5013582;28;20045;-81
2022/05/08 06:56:56;;;;;;;21.25;14.68;;;13.70;75.10;;;;;;5018491;28;20096;-81
2022/05/08 07:02:07;;;;;;;21.40;13.68;;;14.10;74.20;;;;;;5019612;28;20526;-81
2022/05/08 07:04:33;;;;;;;20.55;13.52;;;14.10;73.40;;;;;;5011681;28;20041;-80
2022/05/08 07:07:00;;;;;;;22.35;13.50;;;14.00;73.60;;;;;;5009761;28;20058;-80
2022/05/08 07:09:25;;;;;;;22.73;12.95;;;14.10;73.00;;;;;;5012024;28;20052;-80
2022/05/08 07:11:51;;;;;;;17.70;12.80;;;14.50;72.90;;;;;;5032527;28;20037;-81
2022/05/08 07:14:17;;;;;;;19.88;12.90;;;14.30;71.70;;;;;;5015002;28;20477;-81
2022/05/08 07:16:46;;;;;;;18.42;11.85;;;14.50;71.80;;;;;;5011613;28;20430;-83
2022/05/08 07:19:11;;;;;;;19.30;11.48;;;14.50;72.00;;;;;;5009739;28;20484;-80
2022/05/08 07:21:37;;;;;;;18.50;11.82;;;14.50;69.70;;;;;;5007466;28;20144;-81
2022/05/08 07:24:04;;;;;;;19.00;10.73;;;14.60;70.20;;;;;;5009523;28;20041;-81
2022/05/08 07:26:29;;;;;;;17.95;10.52;;;14.60;69.80;;;;;;5011200;28;20594;-81
2022/05/08 07:28:55;;;;;;;18.05;10.85;;;14.60;69.00;;;;;;5011418;28;20797;-81
2022/05/08 07:31:21;;;;;;;17.98;9.90;;;14.60;69.50;;;;;;5014225;28;20041;-79
2022/05/08 07:33:47;;;;;;;18.70;9.38;;;14.60;68.60;;;;;;5007752;28;20038;-82
2022/05/08 07:36:12;;;;;;;16.55;10.07;;;15.00;68.20;;;;;;5007193;28;20041;-81
2022/05/08 07:38:43;;;;;;;18.40;9.95;;;15.30;66.50;;;;;;5011548;28;20037;-78
2022/05/08 07:41:14;;;;;;;17.60;9.90;;;15.10;66.60;;;;;;5007529;28;20038;-81
2022/05/08 07:43:41;;;;;;;17.35;10.15;;;15.30;65.40;;;;;;5012957;28;20029;-82
2022/05/08 07:46:06;;;;;;;17.83;10.88;;;15.10;65.10;;;;;;5013006;28;20045;-81
2022/05/08 07:48:32;;;;;;;17.05;9.80;;;15.10;66.60;;;;;;5016410;28;20040;-80
2022/05/08 07:51:02;;;;;;;18.08;10.05;;;15.40;65.40;;;;;;5010974;28;20041;-83
2022/05/08 07:53:29;;;;;;;20.23;10.05;;;15.60;64.50;;;;;;5012496;28;20029;-80
2022/05/08 07:55:54;;;;;;;18.05;9.52;;;15.80;64.20;;;;;;5021038;28;20076;-78
2022/05/08 07:58:21;;;;;;;20.52;10.27;;;16.10;64.10;;;;;;5012679;28;20125;-78
2022/05/08 08:00:49;;;;;;;15.82;9.10;;;16.30;62.60;;;;;;5016293;28;20061;-80
2022/05/08 08:03:16;;;;;;;15.07;6.22;;;16.40;61.20;;;;;;5012814;28;20044;-83
2022/05/08 08:05:43;;;;;;;12.00;5.70;;;16.10;60.50;;;;;;5020400;28;20050;-80
2022/05/08 08:08:08;;;;;;;12.48;6.75;;;15.90;59.10;;;;;;5012173;28;20132;-84
2022/05/08 08:10:34;;;;;;;13.02;5.47;;;15.90;59.30;;;;;;5015785;28;20392;-81
2022/05/08 08:13:00;;;;;;;10.52;5.25;;;16.10;59.80;;;;;;5011792;28;20065;-81
2022/05/08 08:15:26;;;;;;;15.18;6.32;;;16.50;59.90;;;;;;5008581;28;20331;-82
2022/05/08 08:17:52;;;;;;;12.57;5.75;;;16.50;58.40;;;;;;5024866;28;20034;-80
2022/05/08 08:20:18;;;;;;;11.18;6.00;;;16.50;57.10;;;;;;5025916;28;20098;-80
2022/05/08 08:22:43;;;;;;;12.88;5.53;;;16.40;59.60;;;;;;5021336;28;20040;-79
2022/05/08 08:25:09;;;;;;;12.82;5.25;;;16.70;58.80;;;;;;5024903;28;20045;-81
2022/05/08 08:27:35;;;;;;;14.70;5.85;;;16.90;57.40;;;;;;5028317;28;20150;-81
2022/05/08 08:30:03;;;;;;;13.98;5.93;;;17.10;56.40;;;;;;5017921;28;20037;-81
2022/05/08 08:32:31;;;;;;;14.00;5.93;;;17.10;56.40;;;;;;5025636;28;20659;-78
2022/05/08 08:34:57;;;;;;;13.63;6.57;;;17.20;56.50;;;;;;5016957;28;20048;-80
2022/05/08 08:37:23;;;;;;;14.85;5.28;;;16.90;55.80;;;;;;5012853;28;20438;-82
2022/05/08 08:39:48;;;;;;;13.50;6.05;;;17.10;56.80;;;;;;5015871;28;20029;-81
2022/05/08 08:42:28;;;;;;;14.93;6.38;;;16.60;57.30;;;;;;5018473;28;20464;-81
2022/05/08 08:48:06;;;;;;;13.50;5.40;;;17.10;56.20;;;;;;5012476;28;20103;-81
2022/05/08 08:50:32;;;;;;;18.65;5.75;;;17.10;56.40;;;;;;5014657;28;20676;-83
2022/05/08 08:53:01;;;;;;;16.55;5.82;;;16.80;55.50;;;;;;5016095;28;20124;-84
2022/05/08 08:55:27;;;;;;;12.73;5.45;;;17.10;56.50;;;;;;5015204;28;20038;-82
2022/05/08 08:57:53;;;;;;;16.80;6.05;;;17.40;55.80;;;;;;5017538;28;20638;-81
2022/05/08 09:00:20;;;;;;;15.45;5.88;;;17.30;54.80;;;;;;5018107;28;20037;-84
2022/05/08 09:02:47;;;;;;;15.90;6.55;;;17.60;55.00;;;;;;5017024;28;20034;-81
2022/05/08 09:05:13;;;;;;;15.70;5.55;;;17.60;54.60;;;;;;5016272;28;20141;-82
2022/05/08 09:07:51;;;;;;;13.93;5.43;;;17.70;53.30;;;;;;5016020;28;20118;-82
2022/05/08 09:10:16;;;;;;;11.57;5.05;;;18.00;54.00;;;;;;5018039;28;20068;-83
2022/05/08 09:13:04;;;;;;;13.27;5.22;;;18.40;51.70;;;;;;5016492;28;20117;-83
2022/05/08 09:15:32;;;;;;;14.77;5.35;;;18.60;51.50;;;;;;5017140;28;20034;-83
2022/05/08 09:18:01;;;;;;;16.02;6.47;;;18.80;51.10;;;;;;5008907;28;20091;-81
2022/05/08 09:20:32;;;;;;;14.10;6.55;;;18.60;51.20;;;;;;5012568;28;20531;-83
2022/05/08 09:23:14;;;;;;;12.30;4.95;;;18.50;52.30;;;;;;5014787;28;20520;-82
2022/05/08 09:25:47;;;;;;;12.60;4.82;;;18.60;50.80;;;;;;5030883;28;20043;-81
2022/05/08 09:28:19;;;;;;;16.33;5.63;;;18.40;51.20;;;;;;5036331;28;20049;-81
2022/05/08 09:31:03;;;;;;;14.38;5.80;;;18.50;50.10;;;;;;5017237;28;20037;-82
2022/05/08 09:33:31;;;;;;;12.88;4.82;;;18.60;50.70;;;;;;5013665;28;20326;-83
2022/05/08 09:36:03;;;;;;;13.38;5.10;;;18.60;50.40;;;;;;5023513;28;20516;-81
2022/05/08 09:38:48;;;;;;;12.80;4.40;;;18.50;49.10;;;;;;5009712;28;20049;-81
2022/05/08 09:41:21;;;;;;;13.20;5.45;;;18.30;50.80;;;;;;5019255;28;20378;-83
2022/05/08 09:43:48;;;;;;;13.13;5.32;;;18.60;49.60;;;;;;5017941;28;20136;-84
2022/05/08 09:46:14;;;;;;;14.18;4.97;;;17.90;51.10;;;;;;5018439;28;20045;-83
2022/05/08 09:48:39;;;;;;;12.43;5.15;;;18.00;51.40;;;;;;5025008;28;20520;-81
2022/05/08 09:51:08;;;;;;;12.32;4.75;;;18.20;51.30;;;;;;5008439;28;20559;-82
2022/05/08 09:53:35;;;;;;;10.85;4.88;;;18.30;49.60;;;;;;5018334;28;20064;-80
2022/05/08 09:56:04;;;;;;;11.75;4.80;;;18.80;51.20;;;;;;5011596;28;20053;-79
2022/05/08 09:58:31;;;;;;;13.45;4.47;;;19.20;50.30;;;;;;5015441;28;20056;-86
2022/05/08 10:00:57;;;;;;;13.02;4.18;;;19.30;47.70;;;;;;5011536;28;20076;-80
2022/05/08 10:03:24;;;;;;;11.90;4.47;;;19.30;47.30;;;;;;5018108;28;20480;-82
2022/05/08 10:05:50;;;;;;;12.38;5.50;;;19.50;47.80;;;;;;5017810;28;20429;-82
2022/05/08 10:08:18;;;;;;;14.18;5.75;;;18.70;48.40;;;;;;5018248;28;20130;-81
2022/05/08 10:16:40;;;;;;;;;;;19.00;47.40;;;;;;5014888;28;20145;-81
2022/05/08 10:19:23;;;;;;;12.73;3.90;;;19.40;47.30;;;;;;5014417;28;19921;-84
2022/05/08 10:22:03;;;;;;;13.65;4.40;;;19.70;45.90;;;;;;5006755;28;20548;-80
2022/05/08 10:24:31;;;;;;;10.63;4.22;;;20.10;46.30;;;;;;5018918;28;20465;-81
2022/05/08 10:27:17;;;;;;;14.45;5.53;;;20.00;46.10;;;;;;5014670;28;20045;-80
2022/05/08 10:29:49;;;;;;;13.80;4.82;;;19.80;45.90;;;;;;5014286;28;20033;-80
2022/05/08 10:32:32;;;;;;;12.23;4.00;;;19.50;45.10;;;;;;5017811;28;20036;-81
2022/05/08 10:35:22;;;;;;;11.38;3.58;;;19.40;42.90;;;;;;5023255;28;20040;-84
2022/05/08 10:37:51;;;;;;;11.35;4.50;;;19.20;42.20;;;;;;5006037;28;20045;-87
2022/05/08 10:40:23;;;;;;;15.35;5.00;;;19.10;43.90;;;;;;5047043;27;21008;-80
2022/05/08 10:42:50;;;;;;;10.57;3.83;;;19.00;45.50;;;;;;5040628;28;20141;-81
2022/05/08 10:45:42;;;;;;;14.15;4.30;;;19.40;44.90;;;;;;5021278;28;20038;-83
2022/05/08 10:48:11;;;;;;;10.75;3.88;;;18.90;42.60;;;;;;5029499;28;20041;-80
2022/05/08 10:50:43;;;;;;;15.25;5.07;;;19.00;43.40;;;;;;5025682;28;20038;-81
2022/05/08 10:53:25;;;;;;;11.32;3.90;;;19.40;43.10;;;;;;5037453;28;20057;-82
2022/05/08 10:55:52;;;;;;;10.52;3.38;;;19.30;42.20;;;;;;5027133;28;20042;-81
2022/05/08 10:58:18;;;;;;;10.93;3.67;;;18.90;42.10;;;;;;5019038;28;20128;-82
2022/05/08 11:00:44;;;;;;;10.85;3.15;;;19.30;41.80;;;;;;5024362;28;20034;-80
2022/05/08 11:03:10;;;;;;;12.63;3.13;;;19.70;40.10;;;;;;5025408;28;20071;-83
2022/05/08 11:05:38;;;;;;;9.60;3.88;;;20.10;39.40;;;;;;5030029;28;20448;-83
2022/05/08 11:08:11;;;;;;;8.18;3.30;;;19.60;37.60;;;;;;5047649;28;20030;-82
2022/05/08 11:10:37;;;;;;;11.27;3.58;;;20.10;37.60;;;;;;5026554;28;20042;-82
2022/05/08 11:13:15;;;;;;;12.00;3.58;;;20.00;37.70;;;;;;5028982;28;20037;-81
2022/05/08 11:15:41;;;;;;;9.40;3.10;;;19.80;38.30;;;;;;5027107;28;20076;-81
2022/05/08 11:18:27;;;;;;;11.10;3.10;;;19.70;39.10;;;;;;5033767;28;20045;-84
2022/05/08 11:20:59;;;;;;;11.98;3.60;;;19.90;38.90;;;;;;5020195;28;20037;-83
2022/05/08 11:23:27;;;;;;;10.23;2.83;;;20.30;39.70;;;;;;5023491;28;20211;-81
2022/05/08 11:25:55;;;;;;;7.88;2.55;;;20.00;38.40;;;;;;5026389;28;20174;-81
2022/05/08 11:28:23;;;;;;;9.40;3.08;;;19.90;36.80;;;;;;5025252;28;20037;-81
2022/05/08 11:30:52;;;;;;;8.25;2.97;;;19.90;38.20;;;;;;5026566;28;20096;-79
2022/05/08 11:36:22;;;;;;;10.10;2.65;;;20.20;37.40;;;;;;5024935;28;20162;-81
2022/05/08 11:38:55;;;;;;;10.35;3.35;;;19.70;38.20;;;;;;5025679;28;20049;-81
2022/05/08 11:41:44;;;;;;;9.70;2.60;;;20.40;37.90;;;;;;5020399;28;20045;-80
2022/05/08 11:44:13;;;;;;;8.18;2.90;;;20.70;36.40;;;;;;5019004;28;20068;-83
2022/05/08 11:46:40;;;;;;;9.65;2.67;;;20.50;36.70;;;;;;5025501;28;20087;-79
2022/05/08 11:49:40;;;;;;;7.32;2.58;;;20.30;37.80;;;;;;5023742;28;20084;-80
2022/05/08 11:52:17;;;;;;;8.75;2.83;;;20.90;35.90;;;;;;4984633;28;20517;-81
2022/05/08 11:55:02;;;;;;;9.65;2.60;;;20.50;36.30;;;;;;5023976;28;20034;-81
2022/05/08 11:57:28;;;;;;;9.60;3.17;;;20.50;36.80;;;;;;5010118;28;20059;-84
2022/05/08 12:00:04;;;;;;;7.88;2.28;;;20.40;36.80;;;;;;5006560;28;20470;-82
2022/05/08 12:02:47;;;;;;;8.10;2.67;;;20.40;37.20;;;;;;5015502;28;20210;-81
2022/05/08 12:05:24;;;;;;;8.02;2.17;;;20.80;37.30;;;;;;5016614;28;20045;-81
2022/05/08 12:07:51;;;;;;;11.63;3.42;;;20.80;35.80;;;;;;5012025;28;20046;-84
2022/05/08 12:10:17;;;;;;;9.65;3.05;;;20.10;37.60;;;;;;5012781;28;20080;-82
2022/05/08 12:12:44;;;;;;;8.35;2.80;;;20.50;36.50;;;;;;5007597;28;20045;-80
2022/05/08 12:15:13;;;;;;;10.88;3.30;;;20.60;37.00;;;;;;5012114;28;20037;-80
2022/05/08 12:17:44;;;;;;;7.45;2.70;;;20.50;37.10;;;;;;5008268;28;20141;-82
2022/05/08 12:20:26;;;;;;;10.65;3.08;;;20.60;37.10;;;;;;5013922;28;20408;-80
2022/05/08 12:23:10;;;;;;;9.20;3.00;;;20.40;36.80;;;;;;5008855;28;20157;-82
2022/05/08 12:25:41;;;;;;;12.65;3.95;;;20.40;37.70;;;;;;5011558;28;20040;-83
2022/05/08 12:28:10;;;;;;;9.07;3.40;;;20.60;37.60;;;;;;5006439;28;20033;-85
2022/05/08 12:30:35;;;;;;;10.10;3.85;;;20.90;37.70;;;;;;5013814;28;20087;-85
2022/05/08 12:33:02;;;;;;;13.70;3.72;;;20.70;38.50;;;;;;5011734;28;20037;-85
2022/05/08 12:35:27;;;;;;;12.73;3.70;;;20.70;37.30;;;;;;5022499;28;20029;-82
2022/05/08 12:37:53;;;;;;;10.95;3.70;;;20.60;37.90;;;;;;5022506;28;20040;-85
2022/05/08 12:40:19;;;;;;;8.32;3.05;;;20.60;37.80;;;;;;5006407;28;20049;-80
2022/05/08 12:42:45;;;;;;;13.43;2.90;;;20.60;37.20;;;;;;5016555;28;20037;-81
2022/05/08 12:45:12;;;;;;;10.68;3.47;;;20.50;37.40;;;;;;5008052;28;20111;-82
2022/05/08 12:47:37;;;;;;;11.35;3.13;;;21.00;37.70;;;;;;5014670;28;20222;-82
2022/05/08 12:50:04;;;;;;;11.02;3.15;;;21.10;37.60;;;;;;5003129;28;20041;-81
2022/05/08 12:52:30;;;;;;;8.27;2.60;;;21.00;37.20;;;;;;5004767;28;20480;-81
2022/05/08 12:54:56;;;;;;;9.63;2.92;;;20.90;36.00;;;;;;5027610;28;20037;-81
2022/05/08 13:00:06;;;;;;;9.15;2.72;;;20.50;37.60;;;;;;5011335;28;20447;-83
2022/05/08 13:02:32;;;;;;;7.43;2.58;;;20.60;37.80;;;;;;5015790;28;20037;-81
2022/05/08 13:04:58;;;;;;;10.40;3.35;;;20.90;38.60;;;;;;5014693;28;20045;-82
2022/05/08 13:07:23;;;;;;;11.60;3.42;;;20.60;38.30;;;;;;5016456;28;20524;-82